עמוד ראשי
METAR-TAF:

METAR-TAF

שדות תעופה :

Phillip Goldston

Belize City, בליז

קו רוחב: 17-32N, קו אורך: 088-18W, גובה: 5מטר

תצפית מזג אוויר נוכחית

הדו"ח נערך לפני 26דקות, בשעה 22:25 UTC
רוח 2קשר עם כיוונים משתנים
טמפרטורת 30 צלסיוס
לחות 84%
לחץ 1006 hPa
ראות 10 קילומטר או יותר
עננים בינוניים בגובה 2000רגל

METAR: MZBZ 142225Z VRB02KT 9999 BKN020 30/27 A2972 Q1006 RETS TEMPO 5000 SHRA RMK SHRA NW LR3

זמן: 16:51 (22:51 UTC)

תחזית

הדו"ח נערך לפני 6 שעות ו 21דקות, בשעה 16:30 UTC
תחזית בתוקף מ 14 ב 18 UTC עד 15 ב 18 UTC
רוח 5קשר מכיוון מזרח/דרום-מזרח
ראות 10 קילומטר או יותר
עננים פזורים בגובה 2200רגל
יעשה מ
15 ב 01 UTC עד 15 ב 03 UTC
רוח 3קשר עם כיוונים משתנים
הסתברות 40% :
זמנית מ -
15 ב 06 UTC עד 15 ב 15 UTC
ראות: 4000מטר
מעט עננים בגובה 1000רגל , קומולונימבוס.
עננים בינוניים בגובה 1400רגל
סופת רעמים, גשם,

TAF: MZBZ 141630Z 1418/1518 12005KT 9999 SCT022 BECMG 1501/1503 VRB03KT PROB40 TEMPO 1506/1515 4000 TSRA FEW010CB BKN014

תצפיות ותחזיות מזג אוויר לגבי יותר מ- 4,000 שדות תעופה ברחבי העולם. דוחות METAR ו- TAF.

התחנות הזמינות מסומנות בנקודות צהובות ואדומות על גבי המפה.

העבר את העכבר לנקודה הצבעונית על מנת לראות את שם התחנה.

לאחר מכן, לחץ כדי לראות את תוכן ואת תחזיות מזג האוויר.

כדי לשנות את המפה: לחץ על הכפתורים הירוקים עם הפלוס השחור כדי להתקרב; על הכפתור הירוק עם המקף כדי להתרחק; או בחיצים הירוקים למפות סמוכות.


METAR-TAF: